sensor_id;sensor_type;location;lat;lon;timestamp;temperature;humidity
21439;DHT22;10880;50.302;18.736;2022-12-20T00:01:13;5.20;58.80
21439;DHT22;10880;50.302;18.736;2022-12-20T00:03:41;5.20;59.10
21439;DHT22;10880;50.302;18.736;2022-12-20T00:08:40;5.20;58.60
21439;DHT22;10880;50.302;18.736;2022-12-20T00:11:09;5.30;59.20
21439;DHT22;10880;50.302;18.736;2022-12-20T00:13:36;5.30;58.90
21439;DHT22;10880;50.302;18.736;2022-12-20T00:16:14;5.30;59.00
21439;DHT22;10880;50.302;18.736;2022-12-20T00:18:41;5.30;59.10
21439;DHT22;10880;50.302;18.736;2022-12-20T00:21:11;5.30;58.70
21439;DHT22;10880;50.302;18.736;2022-12-20T00:23:38;5.30;59.10
21439;DHT22;10880;50.302;18.736;2022-12-20T00:26:13;5.40;59.20
21439;DHT22;10880;50.302;18.736;2022-12-20T00:28:40;5.40;59.20
21439;DHT22;10880;50.302;18.736;2022-12-20T00:31:08;5.40;59.10
21439;DHT22;10880;50.302;18.736;2022-12-20T00:33:36;5.40;58.70
21439;DHT22;10880;50.302;18.736;2022-12-20T00:36:04;5.40;59.10
21439;DHT22;10880;50.302;18.736;2022-12-20T00:38:30;5.50;59.20
21439;DHT22;10880;50.302;18.736;2022-12-20T00:41:01;5.50;58.90
21439;DHT22;10880;50.302;18.736;2022-12-20T00:43:29;5.50;59.20
21439;DHT22;10880;50.302;18.736;2022-12-20T00:45:56;5.50;59.20
21439;DHT22;10880;50.302;18.736;2022-12-20T00:48:23;5.50;59.00
21439;DHT22;10880;50.302;18.736;2022-12-20T00:50:50;5.50;59.30
21439;DHT22;10880;50.302;18.736;2022-12-20T00:53:17;5.50;59.20
21439;DHT22;10880;50.302;18.736;2022-12-20T00:55:45;5.50;59.10
21439;DHT22;10880;50.302;18.736;2022-12-20T00:58:12;5.50;59.20
21439;DHT22;10880;50.302;18.736;2022-12-20T01:00:40;5.60;59.40
21439;DHT22;10880;50.302;18.736;2022-12-20T01:03:07;5.60;59.20
21439;DHT22;10880;50.302;18.736;2022-12-20T01:05:34;5.60;59.20
21439;DHT22;10880;50.302;18.736;2022-12-20T01:08:03;5.60;59.40
21439;DHT22;10880;50.302;18.736;2022-12-20T01:10:30;5.50;59.10
21439;DHT22;10880;50.302;18.736;2022-12-20T01:12:57;5.60;59.40
21439;DHT22;10880;50.302;18.736;2022-12-20T01:15:25;5.60;59.20
21439;DHT22;10880;50.302;18.736;2022-12-20T01:17:52;5.60;59.50
21439;DHT22;10880;50.302;18.736;2022-12-20T01:20:20;5.20;59.40
21439;DHT22;10880;50.302;18.736;2022-12-20T01:22:47;5.60;59.70
21439;DHT22;10880;50.302;18.736;2022-12-20T01:25:15;5.60;59.20
21439;DHT22;10880;50.302;18.736;2022-12-20T01:27:44;5.60;59.80
21439;DHT22;10880;50.302;18.736;2022-12-20T01:30:13;5.60;59.90
21439;DHT22;10880;50.302;18.736;2022-12-20T01:32:39;5.60;59.50
21439;DHT22;10880;50.302;18.736;2022-12-20T01:35:06;5.60;59.50
21439;DHT22;10880;50.302;18.736;2022-12-20T01:37:33;5.60;59.40
21439;DHT22;10880;50.302;18.736;2022-12-20T01:39:59;5.60;59.40
21439;DHT22;10880;50.302;18.736;2022-12-20T01:42:26;5.60;59.50
21439;DHT22;10880;50.302;18.736;2022-12-20T01:44:57;5.70;59.50
21439;DHT22;10880;50.302;18.736;2022-12-20T01:47:24;5.70;59.80
21439;DHT22;10880;50.302;18.736;2022-12-20T01:49:53;5.70;59.70
21439;DHT22;10880;50.302;18.736;2022-12-20T01:52:23;5.70;59.80
21439;DHT22;10880;50.302;18.736;2022-12-20T01:55:04;5.70;60.60
21439;DHT22;10880;50.302;18.736;2022-12-20T01:57:49;5.70;59.80
21439;DHT22;10880;50.302;18.736;2022-12-20T02:00:17;5.70;59.90
21439;DHT22;10880;50.302;18.736;2022-12-20T02:02:47;5.70;59.70
21439;DHT22;10880;50.302;18.736;2022-12-20T02:05:17;5.80;59.40
21439;DHT22;10880;50.302;18.736;2022-12-20T02:07:48;5.80;59.40
21439;DHT22;10880;50.302;18.736;2022-12-20T02:10:16;5.80;59.90
21439;DHT22;10880;50.302;18.736;2022-12-20T02:12:45;5.80;59.90
21439;DHT22;10880;50.302;18.736;2022-12-20T02:26:30;5.80;59.70
21439;DHT22;10880;50.302;18.736;2022-12-20T02:31:42;5.80;59.60
21439;DHT22;10880;50.302;18.736;2022-12-20T02:34:12;5.80;59.40
21439;DHT22;10880;50.302;18.736;2022-12-20T02:36:40;5.80;59.40
21439;DHT22;10880;50.302;18.736;2022-12-20T02:39:11;5.80;58.90
21439;DHT22;10880;50.302;18.736;2022-12-20T02:41:50;5.80;59.40
21439;DHT22;10880;50.302;18.736;2022-12-20T02:44:19;5.80;59.40
21439;DHT22;10880;50.302;18.736;2022-12-20T02:47:10;5.70;59.30
21439;DHT22;10880;50.302;18.736;2022-12-20T02:49:39;5.70;59.30
21439;DHT22;10880;50.302;18.736;2022-12-20T02:52:10;5.70;58.80
21439;DHT22;10880;50.302;18.736;2022-12-20T02:54:38;5.70;59.30
21439;DHT22;10880;50.302;18.736;2022-12-20T03:03:02;5.70;59.40
21439;DHT22;10880;50.302;18.736;2022-12-20T03:05:51;5.70;59.30
21439;DHT22;10880;50.302;18.736;2022-12-20T03:08:21;5.70;59.30
21439;DHT22;10880;50.302;18.736;2022-12-20T03:10:51;5.70;59.30
21439;DHT22;10880;50.302;18.736;2022-12-20T03:13:22;5.60;59.30
21439;DHT22;10880;50.302;18.736;2022-12-20T03:15:58;5.60;58.80
21439;DHT22;10880;50.302;18.736;2022-12-20T03:18:27;5.60;59.20
21439;DHT22;10880;50.302;18.736;2022-12-20T03:20:56;5.60;59.20
21439;DHT22;10880;50.302;18.736;2022-12-20T03:23:24;5.50;59.10
21439;DHT22;10880;50.302;18.736;2022-12-20T03:25:50;5.50;58.80
21439;DHT22;10880;50.302;18.736;2022-12-20T03:28:30;5.50;59.00
21439;DHT22;10880;50.302;18.736;2022-12-20T03:30:57;5.50;58.90
21439;DHT22;10880;50.302;18.736;2022-12-20T03:35:50;5.40;58.80
21439;DHT22;10880;50.302;18.736;2022-12-20T03:38:18;5.40;59.00
21439;DHT22;10880;50.302;18.736;2022-12-20T03:40:44;5.40;58.90
21439;DHT22;10880;50.302;18.736;2022-12-20T03:43:13;5.40;59.00
21439;DHT22;10880;50.302;18.736;2022-12-20T03:45:40;5.40;59.00
21439;DHT22;10880;50.302;18.736;2022-12-20T03:48:06;5.40;58.80
21439;DHT22;10880;50.302;18.736;2022-12-20T03:50:33;5.40;58.90
21439;DHT22;10880;50.302;18.736;2022-12-20T03:53:02;5.40;59.10
21439;DHT22;10880;50.302;18.736;2022-12-20T03:55:28;5.40;58.90
21439;DHT22;10880;50.302;18.736;2022-12-20T03:57:55;5.40;58.90
21439;DHT22;10880;50.302;18.736;2022-12-20T04:00:32;5.30;58.90
21439;DHT22;10880;50.302;18.736;2022-12-20T04:03:18;5.30;59.00
21439;DHT22;10880;50.302;18.736;2022-12-20T04:05:45;5.30;58.90
21439;DHT22;10880;50.302;18.736;2022-12-20T04:08:12;5.30;59.00
21439;DHT22;10880;50.302;18.736;2022-12-20T04:10:40;5.30;58.70
21439;DHT22;10880;50.302;18.736;2022-12-20T04:13:30;5.30;59.20
21439;DHT22;10880;50.302;18.736;2022-12-20T04:15:56;5.30;59.00
21439;DHT22;10880;50.302;18.736;2022-12-20T04:18:26;5.30;59.30
21439;DHT22;10880;50.302;18.736;2022-12-20T04:20:53;5.30;59.10
21439;DHT22;10880;50.302;18.736;2022-12-20T04:23:24;5.30;59.30
21439;DHT22;10880;50.302;18.736;2022-12-20T04:25:51;5.30;59.10
21439;DHT22;10880;50.302;18.736;2022-12-20T04:28:18;5.40;59.20
21439;DHT22;10880;50.302;18.736;2022-12-20T04:30:44;5.40;59.20
21439;DHT22;10880;50.302;18.736;2022-12-20T04:33:14;5.40;59.20
21439;DHT22;10880;50.302;18.736;2022-12-20T04:35:40;5.40;59.30
21439;DHT22;10880;50.302;18.736;2022-12-20T04:38:07;5.40;59.40
21439;DHT22;10880;50.302;18.736;2022-12-20T04:40:34;5.40;59.40
21439;DHT22;10880;50.302;18.736;2022-12-20T04:43:03;5.40;59.40
21439;DHT22;10880;50.302;18.736;2022-12-20T04:45:29;5.40;59.40
21439;DHT22;10880;50.302;18.736;2022-12-20T04:47:56;5.30;59.20
21439;DHT22;10880;50.302;18.736;2022-12-20T04:52:57;5.40;59.30
21439;DHT22;10880;50.302;18.736;2022-12-20T04:55:42;5.40;59.70
21439;DHT22;10880;50.302;18.736;2022-12-20T04:58:09;5.40;59.30
21439;DHT22;10880;50.302;18.736;2022-12-20T05:03:21;5.40;59.20
21439;DHT22;10880;50.302;18.736;2022-12-20T05:05:48;5.50;59.70
21439;DHT22;10880;50.302;18.736;2022-12-20T05:08:15;5.50;59.30
21439;DHT22;10880;50.302;18.736;2022-12-20T05:16:17;5.50;59.60
21439;DHT22;10880;50.302;18.736;2022-12-20T05:18:43;5.50;59.20
21439;DHT22;10880;50.302;18.736;2022-12-20T05:21:09;5.40;58.90
21439;DHT22;10880;50.302;18.736;2022-12-20T05:23:54;5.50;59.50
21439;DHT22;10880;50.302;18.736;2022-12-20T05:26:53;5.40;59.40
21439;DHT22;10880;50.302;18.736;2022-12-20T05:29:20;5.40;59.00
21439;DHT22;10880;50.302;18.736;2022-12-20T05:31:48;5.40;59.20
21439;DHT22;10880;50.302;18.736;2022-12-20T05:34:15;5.40;59.30
21439;DHT22;10880;50.302;18.736;2022-12-20T05:36:46;5.40;59.10
21439;DHT22;10880;50.302;18.736;2022-12-20T05:41:42;5.40;59.10
21439;DHT22;10880;50.302;18.736;2022-12-20T05:44:09;5.40;59.30
21439;DHT22;10880;50.302;18.736;2022-12-20T05:46:38;5.40;59.10
21439;DHT22;10880;50.302;18.736;2022-12-20T05:49:10;5.40;59.30
21439;DHT22;10880;50.302;18.736;2022-12-20T05:51:37;5.40;59.20
21439;DHT22;10880;50.302;18.736;2022-12-20T05:54:16;5.40;59.40
21439;DHT22;10880;50.302;18.736;2022-12-20T05:56:55;5.40;59.30
21439;DHT22;10880;50.302;18.736;2022-12-20T05:59:29;5.40;59.30
21439;DHT22;10880;50.302;18.736;2022-12-20T06:01:55;5.40;59.40
21439;DHT22;10880;50.302;18.736;2022-12-20T06:04:23;5.40;59.30
21439;DHT22;10880;50.302;18.736;2022-12-20T06:06:51;5.40;59.30
21439;DHT22;10880;50.302;18.736;2022-12-20T06:09:19;5.40;59.30
21439;DHT22;10880;50.302;18.736;2022-12-20T06:11:54;5.40;59.30
21439;DHT22;10880;50.302;18.736;2022-12-20T06:16:48;5.40;59.10
21439;DHT22;10880;50.302;18.736;2022-12-20T06:19:16;5.40;59.40
21439;DHT22;10880;50.302;18.736;2022-12-20T06:21:43;5.40;59.20
21439;DHT22;10880;50.302;18.736;2022-12-20T06:24:13;5.40;59.40
21439;DHT22;10880;50.302;18.736;2022-12-20T06:26:42;5.40;59.30
21439;DHT22;10880;50.302;18.736;2022-12-20T06:29:09;5.30;59.30
21439;DHT22;10880;50.302;18.736;2022-12-20T06:31:50;5.30;59.40
21439;DHT22;10880;50.302;18.736;2022-12-20T06:34:17;5.30;59.20
21439;DHT22;10880;50.302;18.736;2022-12-20T06:36:44;5.30;59.50
21439;DHT22;10880;50.302;18.736;2022-12-20T06:39:16;5.30;59.40
21439;DHT22;10880;50.302;18.736;2022-12-20T06:41:56;5.30;59.50
21439;DHT22;10880;50.302;18.736;2022-12-20T06:44:22;5.30;59.50
21439;DHT22;10880;50.302;18.736;2022-12-20T06:46:50;5.30;59.40
21439;DHT22;10880;50.302;18.736;2022-12-20T06:49:49;5.30;59.40
21439;DHT22;10880;50.302;18.736;2022-12-20T06:52:20;5.30;59.60
21439;DHT22;10880;50.302;18.736;2022-12-20T06:58:06;5.30;59.90
21439;DHT22;10880;50.302;18.736;2022-12-20T07:00:37;5.30;59.70
21439;DHT22;10880;50.302;18.736;2022-12-20T07:03:03;5.30;59.50
21439;DHT22;10880;50.302;18.736;2022-12-20T07:05:30;5.60;59.70
21439;DHT22;10880;50.302;18.736;2022-12-20T07:07:57;5.30;59.70
21439;DHT22;10880;50.302;18.736;2022-12-20T07:10:23;5.30;59.70
21439;DHT22;10880;50.302;18.736;2022-12-20T07:12:51;5.30;60.00
21439;DHT22;10880;50.302;18.736;2022-12-20T07:15:18;5.30;59.90
21439;DHT22;10880;50.302;18.736;2022-12-20T07:17:44;5.30;59.60
21439;DHT22;10880;50.302;18.736;2022-12-20T07:25:58;5.40;60.30
21439;DHT22;10880;50.302;18.736;2022-12-20T07:28:26;5.40;60.30
21439;DHT22;10880;50.302;18.736;2022-12-20T07:30:53;5.40;60.40
21439;DHT22;10880;50.302;18.736;2022-12-20T07:35:46;5.40;59.80
21439;DHT22;10880;50.302;18.736;2022-12-20T07:38:12;5.40;59.90
21439;DHT22;10880;50.302;18.736;2022-12-20T07:40:40;5.40;59.90
21439;DHT22;10880;50.302;18.736;2022-12-20T07:43:08;5.50;60.50
21439;DHT22;10880;50.302;18.736;2022-12-20T07:45:35;5.50;60.50
21439;DHT22;10880;50.302;18.736;2022-12-20T07:48:04;5.50;60.40
21439;DHT22;10880;50.302;18.736;2022-12-20T07:50:32;5.60;60.10
21439;DHT22;10880;50.302;18.736;2022-12-20T07:53:00;5.50;60.60
21439;DHT22;10880;50.302;18.736;2022-12-20T07:55:27;5.60;60.00
21439;DHT22;10880;50.302;18.736;2022-12-20T07:58:00;5.60;60.60
21439;DHT22;10880;50.302;18.736;2022-12-20T08:00:29;5.70;60.60
21439;DHT22;10880;50.302;18.736;2022-12-20T08:03:06;5.70;60.50
21439;DHT22;10880;50.302;18.736;2022-12-20T08:05:34;5.70;60.60
21439;DHT22;10880;50.302;18.736;2022-12-20T08:08:04;5.70;60.50
21439;DHT22;10880;50.302;18.736;2022-12-20T08:10:31;5.80;60.50
21439;DHT22;10880;50.302;18.736;2022-12-20T08:12:58;5.80;60.20
21439;DHT22;10880;50.302;18.736;2022-12-20T08:15:25;5.80;60.40
21439;DHT22;10880;50.302;18.736;2022-12-20T08:17:53;5.80;60.60
21439;DHT22;10880;50.302;18.736;2022-12-20T08:22:47;5.90;60.00
21439;DHT22;10880;50.302;18.736;2022-12-20T08:27:41;5.90;60.00
21439;DHT22;10880;50.302;18.736;2022-12-20T08:30:08;6.00;60.20
21439;DHT22;10880;50.302;18.736;2022-12-20T08:32:36;6.00;60.40
21439;DHT22;10880;50.302;18.736;2022-12-20T08:35:04;6.00;60.50
21439;DHT22;10880;50.302;18.736;2022-12-20T08:37:31;6.10;60.70
21439;DHT22;10880;50.302;18.736;2022-12-20T08:42:26;6.20;60.10
21439;DHT22;10880;50.302;18.736;2022-12-20T08:44:53;6.20;60.10
21439;DHT22;10880;50.302;18.736;2022-12-20T08:47:20;6.30;60.30
21439;DHT22;10880;50.302;18.736;2022-12-20T08:49:46;6.30;60.10
21439;DHT22;10880;50.302;18.736;2022-12-20T08:52:12;6.30;60.00
21439;DHT22;10880;50.302;18.736;2022-12-20T08:54:39;6.40;60.00
21439;DHT22;10880;50.302;18.736;2022-12-20T08:57:06;6.40;60.00
21439;DHT22;10880;50.302;18.736;2022-12-20T08:59:32;6.40;59.80
21439;DHT22;10880;50.302;18.736;2022-12-20T09:01:59;6.50;60.10
21439;DHT22;10880;50.302;18.736;2022-12-20T09:04:25;6.50;59.80
21439;DHT22;10880;50.302;18.736;2022-12-20T09:06:51;6.60;59.70
21439;DHT22;10880;50.302;18.736;2022-12-20T09:09:18;6.60;59.80
21439;DHT22;10880;50.302;18.736;2022-12-20T09:11:44;6.50;59.60
21439;DHT22;10880;50.302;18.736;2022-12-20T09:14:11;6.60;59.60
21439;DHT22;10880;50.302;18.736;2022-12-20T09:16:38;6.60;59.60
21439;DHT22;10880;50.302;18.736;2022-12-20T09:19:04;6.60;59.70
21439;DHT22;10880;50.302;18.736;2022-12-20T09:21:31;6.70;59.70
21439;DHT22;10880;50.302;18.736;2022-12-20T09:26:25;6.70;59.50
21439;DHT22;10880;50.302;18.736;2022-12-20T09:28:52;6.80;59.40
21439;DHT22;10880;50.302;18.736;2022-12-20T09:31:21;6.80;59.60
21439;DHT22;10880;50.302;18.736;2022-12-20T09:36:29;6.80;59.30
21439;DHT22;10880;50.302;18.736;2022-12-20T09:38:56;6.90;59.40
21439;DHT22;10880;50.302;18.736;2022-12-20T09:41:42;6.80;59.60
21439;DHT22;10880;50.302;18.736;2022-12-20T09:44:22;6.90;59.70
21439;DHT22;10880;50.302;18.736;2022-12-20T09:47:20;6.90;59.60
21439;DHT22;10880;50.302;18.736;2022-12-20T09:49:50;7.00;59.00
21439;DHT22;10880;50.302;18.736;2022-12-20T09:58:13;7.00;59.40
21439;DHT22;10880;50.302;18.736;2022-12-20T10:00:48;7.10;59.50
21439;DHT22;10880;50.302;18.736;2022-12-20T10:03:46;7.20;59.40
21439;DHT22;10880;50.302;18.736;2022-12-20T10:17:45;7.30;59.10
21439;DHT22;10880;50.302;18.736;2022-12-20T10:20:24;7.30;58.80
21439;DHT22;10880;50.302;18.736;2022-12-20T10:25:35;7.30;58.30
21439;DHT22;10880;50.302;18.736;2022-12-20T10:28:04;7.30;58.40
21439;DHT22;10880;50.302;18.736;2022-12-20T10:30:35;7.20;58.10
21439;DHT22;10880;50.302;18.736;2022-12-20T10:33:02;7.40;58.30
21439;DHT22;10880;50.302;18.736;2022-12-20T10:35:32;7.30;58.10
21439;DHT22;10880;50.302;18.736;2022-12-20T10:38:05;7.40;58.60
21439;DHT22;10880;50.302;18.736;2022-12-20T10:40:40;7.40;58.60
21439;DHT22;10880;50.302;18.736;2022-12-20T10:43:15;7.40;58.40
21439;DHT22;10880;50.302;18.736;2022-12-20T10:46:07;7.40;58.40
21439;DHT22;10880;50.302;18.736;2022-12-20T10:48:33;7.40;58.10
21439;DHT22;10880;50.302;18.736;2022-12-20T10:51:03;7.40;58.60
21439;DHT22;10880;50.302;18.736;2022-12-20T10:56:33;7.40;58.50
21439;DHT22;10880;50.302;18.736;2022-12-20T11:01:44;7.50;58.70
21439;DHT22;10880;50.302;18.736;2022-12-20T11:04:38;7.50;58.50
21439;DHT22;10880;50.302;18.736;2022-12-20T11:07:27;7.60;58.20
21439;DHT22;10880;50.302;18.736;2022-12-20T11:09:56;7.60;58.10
21439;DHT22;10880;50.302;18.736;2022-12-20T11:12:22;7.90;58.80
21439;DHT22;10880;50.302;18.736;2022-12-20T11:14:49;7.60;58.10
21439;DHT22;10880;50.302;18.736;2022-12-20T11:17:37;7.70;58.30
21439;DHT22;10880;50.302;18.736;2022-12-20T11:20:10;7.70;58.70
21439;DHT22;10880;50.302;18.736;2022-12-20T11:25:43;7.80;58.70
21439;DHT22;10880;50.302;18.736;2022-12-20T11:28:18;7.80;58.50
21439;DHT22;10880;50.302;18.736;2022-12-20T11:36:08;7.80;57.40
21439;DHT22;10880;50.302;18.736;2022-12-20T11:38:44;7.80;58.00
21439;DHT22;10880;50.302;18.736;2022-12-20T11:41:20;8.70;58.30
21439;DHT22;10880;50.302;18.736;2022-12-20T11:52:12;7.90;57.70
21439;DHT22;10880;50.302;18.736;2022-12-20T11:54:47;9.20;58.30
21439;DHT22;10880;50.302;18.736;2022-12-20T11:57:35;8.30;57.80
21439;DHT22;10880;50.302;18.736;2022-12-20T12:00:02;7.90;57.50
21439;DHT22;10880;50.302;18.736;2022-12-20T12:02:50;7.70;57.50
21439;DHT22;10880;50.302;18.736;2022-12-20T12:07:58;7.70;57.40
21439;DHT22;10880;50.302;18.736;2022-12-20T12:10:36;7.80;57.80
21439;DHT22;10880;50.302;18.736;2022-12-20T12:13:24;7.80;57.30
21439;DHT22;10880;50.302;18.736;2022-12-20T12:18:46;7.90;57.30
21439;DHT22;10880;50.302;18.736;2022-12-20T12:21:27;7.90;57.60
21439;DHT22;10880;50.302;18.736;2022-12-20T12:26:57;7.90;57.70
21439;DHT22;10880;50.302;18.736;2022-12-20T12:29:24;7.90;57.10
21439;DHT22;10880;50.302;18.736;2022-12-20T12:42:06;7.90;57.50
21439;DHT22;10880;50.302;18.736;2022-12-20T12:47:35;7.90;56.90
21439;DHT22;10880;50.302;18.736;2022-12-20T12:50:07;7.90;57.50
21439;DHT22;10880;50.302;18.736;2022-12-20T12:52:49;7.90;57.40
21439;DHT22;10880;50.302;18.736;2022-12-20T12:55:42;7.90;56.90
21439;DHT22;10880;50.302;18.736;2022-12-20T13:01:11;7.90;57.40
21439;DHT22;10880;50.302;18.736;2022-12-20T13:11:38;7.80;57.00
21439;DHT22;10880;50.302;18.736;2022-12-20T13:16:50;7.80;56.90
21439;DHT22;10880;50.302;18.736;2022-12-20T13:19:35;7.80;57.00
21439;DHT22;10880;50.302;18.736;2022-12-20T13:37:59;8.20;57.50
21439;DHT22;10880;50.302;18.736;2022-12-20T13:40:47;7.70;57.50
21439;DHT22;10880;50.302;18.736;2022-12-20T13:48:49;7.70;57.10
21439;DHT22;10880;50.302;18.736;2022-12-20T13:51:24;7.60;56.80
21439;DHT22;10880;50.302;18.736;2022-12-20T13:54:01;7.60;56.70
21439;DHT22;10880;50.302;18.736;2022-12-20T13:59:07;7.50;57.30
21439;DHT22;10880;50.302;18.736;2022-12-20T14:01:50;7.40;56.80
21439;DHT22;10880;50.302;18.736;2022-12-20T14:04:18;7.50;57.40
21439;DHT22;10880;50.302;18.736;2022-12-20T14:06:55;7.40;56.80
21439;DHT22;10880;50.302;18.736;2022-12-20T14:09:44;7.40;57.00
21439;DHT22;10880;50.302;18.736;2022-12-20T14:12:13;7.40;58.00
21439;DHT22;10880;50.302;18.736;2022-12-20T14:14:44;7.40;57.40
21439;DHT22;10880;50.302;18.736;2022-12-20T14:19:43;7.30;57.40
21439;DHT22;10880;50.302;18.736;2022-12-20T14:22:12;7.30;57.10
21439;DHT22;10880;50.302;18.736;2022-12-20T14:24:43;7.30;57.00
21439;DHT22;10880;50.302;18.736;2022-12-20T14:27:13;7.30;57.10
21439;DHT22;10880;50.302;18.736;2022-12-20T14:40:03;7.20;57.20
21439;DHT22;10880;50.302;18.736;2022-12-20T14:42:35;7.20;57.70
21439;DHT22;10880;50.302;18.736;2022-12-20T14:47:29;7.20;57.40
21439;DHT22;10880;50.302;18.736;2022-12-20T14:50:02;7.20;57.70
21439;DHT22;10880;50.302;18.736;2022-12-20T14:52:34;7.20;57.80
21439;DHT22;10880;50.302;18.736;2022-12-20T14:55:06;7.20;57.80
21439;DHT22;10880;50.302;18.736;2022-12-20T15:08:26;7.10;57.00
21439;DHT22;10880;50.302;18.736;2022-12-20T15:13:44;7.10;57.90
21439;DHT22;10880;50.302;18.736;2022-12-20T15:16:22;7.10;57.80
21439;DHT22;10880;50.302;18.736;2022-12-20T15:18:57;7.10;57.80
21439;DHT22;10880;50.302;18.736;2022-12-20T15:21:35;7.10;57.80
21439;DHT22;10880;50.302;18.736;2022-12-20T15:24:08;7.00;57.90
21439;DHT22;10880;50.302;18.736;2022-12-20T15:26:36;7.00;57.80
21439;DHT22;10880;50.302;18.736;2022-12-20T15:29:03;7.00;57.70
21439;DHT22;10880;50.302;18.736;2022-12-20T15:31:34;7.00;57.90
21439;DHT22;10880;50.302;18.736;2022-12-20T15:34:13;7.00;58.00
21439;DHT22;10880;50.302;18.736;2022-12-20T15:36:41;7.00;57.60
21439;DHT22;10880;50.302;18.736;2022-12-20T15:39:09;7.00;58.00
21439;DHT22;10880;50.302;18.736;2022-12-20T15:41:40;6.90;57.90
21439;DHT22;10880;50.302;18.736;2022-12-20T15:44:16;6.90;58.00
21439;DHT22;10880;50.302;18.736;2022-12-20T15:46:44;6.90;57.90
21439;DHT22;10880;50.302;18.736;2022-12-20T15:49:21;6.90;57.60
21439;DHT22;10880;50.302;18.736;2022-12-20T15:51:49;6.90;58.00
21439;DHT22;10880;50.302;18.736;2022-12-20T15:56:47;6.90;58.10
21439;DHT22;10880;50.302;18.736;2022-12-20T15:59:13;6.80;57.80
21439;DHT22;10880;50.302;18.736;2022-12-20T16:01:40;6.80;57.70
21439;DHT22;10880;50.302;18.736;2022-12-20T16:04:12;6.80;57.80
21439;DHT22;10880;50.302;18.736;2022-12-20T16:06:39;6.80;58.00
21439;DHT22;10880;50.302;18.736;2022-12-20T16:09:06;6.80;57.60
21439;DHT22;10880;50.302;18.736;2022-12-20T16:11:32;6.80;57.80
21439;DHT22;10880;50.302;18.736;2022-12-20T16:13:59;6.80;57.90
21439;DHT22;10880;50.302;18.736;2022-12-20T16:16:32;6.80;57.80
21439;DHT22;10880;50.302;18.736;2022-12-20T16:18:59;6.80;58.10
21439;DHT22;10880;50.302;18.736;2022-12-20T16:21:29;6.80;58.00
21439;DHT22;10880;50.302;18.736;2022-12-20T16:23:57;6.80;58.10
21439;DHT22;10880;50.302;18.736;2022-12-20T16:26:24;6.70;57.70
21439;DHT22;10880;50.302;18.736;2022-12-20T16:28:52;6.70;58.10
21439;DHT22;10880;50.302;18.736;2022-12-20T16:33:57;6.70;58.00
21439;DHT22;10880;50.302;18.736;2022-12-20T16:36:24;6.70;58.10
21439;DHT22;10880;50.302;18.736;2022-12-20T16:38:51;6.70;58.10
21439;DHT22;10880;50.302;18.736;2022-12-20T16:41:29;6.70;58.00
21439;DHT22;10880;50.302;18.736;2022-12-20T16:43:58;6.70;58.10
21439;DHT22;10880;50.302;18.736;2022-12-20T16:46:26;6.70;57.70
21439;DHT22;10880;50.302;18.736;2022-12-20T16:48:54;6.70;58.10
21439;DHT22;10880;50.302;18.736;2022-12-20T16:51:33;6.70;58.10
21439;DHT22;10880;50.302;18.736;2022-12-20T16:54:03;6.70;58.20
21439;DHT22;10880;50.302;18.736;2022-12-20T16:56:30;6.70;58.00
21439;DHT22;10880;50.302;18.736;2022-12-20T16:58:58;6.70;58.10
21439;DHT22;10880;50.302;18.736;2022-12-20T17:01:31;6.70;58.20
21439;DHT22;10880;50.302;18.736;2022-12-20T17:03:58;6.70;58.20
21439;DHT22;10880;50.302;18.736;2022-12-20T17:06:24;6.70;57.90
21439;DHT22;10880;50.302;18.736;2022-12-20T17:08:51;6.60;57.90
21439;DHT22;10880;50.302;18.736;2022-12-20T17:11:26;6.60;58.00
21439;DHT22;10880;50.302;18.736;2022-12-20T17:13:54;6.60;58.40
21439;DHT22;10880;50.302;18.736;2022-12-20T17:16:21;6.60;58.30
21439;DHT22;10880;50.302;18.736;2022-12-20T17:18:50;6.60;58.30
21439;DHT22;10880;50.302;18.736;2022-12-20T17:21:37;6.60;58.40
21439;DHT22;10880;50.302;18.736;2022-12-20T17:24:22;6.60;58.50
21439;DHT22;10880;50.302;18.736;2022-12-20T17:26:50;6.60;58.40
21439;DHT22;10880;50.302;18.736;2022-12-20T17:29:17;6.60;58.40
21439;DHT22;10880;50.302;18.736;2022-12-20T17:31:45;6.60;58.20
21439;DHT22;10880;50.302;18.736;2022-12-20T17:34:16;6.60;58.50
21439;DHT22;10880;50.302;18.736;2022-12-20T17:36:46;6.60;58.60
21439;DHT22;10880;50.302;18.736;2022-12-20T17:39:14;6.60;58.50
21439;DHT22;10880;50.302;18.736;2022-12-20T17:41:41;6.60;58.60
21439;DHT22;10880;50.302;18.736;2022-12-20T17:44:19;6.60;58.50
21439;DHT22;10880;50.302;18.736;2022-12-20T17:46:46;6.60;58.30
21439;DHT22;10880;50.302;18.736;2022-12-20T17:49:14;6.50;59.20
21439;DHT22;10880;50.302;18.736;2022-12-20T17:51:41;6.60;58.80
21439;DHT22;10880;50.302;18.736;2022-12-20T17:54:17;6.60;58.70
21439;DHT22;10880;50.302;18.736;2022-12-20T17:56:44;6.60;58.70
21439;DHT22;10880;50.302;18.736;2022-12-20T17:59:11;6.60;58.70
21439;DHT22;10880;50.302;18.736;2022-12-20T18:01:39;6.60;58.60
21439;DHT22;10880;50.302;18.736;2022-12-20T18:04:11;6.60;58.60
21439;DHT22;10880;50.302;18.736;2022-12-20T18:06:39;6.60;58.60
21439;DHT22;10880;50.302;18.736;2022-12-20T18:09:13;6.60;58.60
21439;DHT22;10880;50.302;18.736;2022-12-20T18:11:39;6.60;58.50
21439;DHT22;10880;50.302;18.736;2022-12-20T18:14:06;6.60;58.20
21439;DHT22;10880;50.302;18.736;2022-12-20T18:16:33;6.60;58.50
21439;DHT22;10880;50.302;18.736;2022-12-20T18:19:04;6.60;58.40
21439;DHT22;10880;50.302;18.736;2022-12-20T18:21:31;6.60;58.50
21439;DHT22;10880;50.302;18.736;2022-12-20T18:23:57;6.60;58.10
21439;DHT22;10880;50.302;18.736;2022-12-20T18:26:29;6.60;58.10
21439;DHT22;10880;50.302;18.736;2022-12-20T18:28:58;6.60;58.60
21439;DHT22;10880;50.302;18.736;2022-12-20T18:31:27;6.50;58.40
21439;DHT22;10880;50.302;18.736;2022-12-20T18:33:55;6.50;58.40
21439;DHT22;10880;50.302;18.736;2022-12-20T18:36:28;6.50;58.50
21439;DHT22;10880;50.302;18.736;2022-12-20T18:38:57;6.50;58.40
21439;DHT22;10880;50.302;18.736;2022-12-20T18:41:26;6.40;58.50
21439;DHT22;10880;50.302;18.736;2022-12-20T18:43:57;6.50;58.60
21439;DHT22;10880;50.302;18.736;2022-12-20T18:46:25;6.40;58.50
21439;DHT22;10880;50.302;18.736;2022-12-20T18:48:53;6.40;58.20
21439;DHT22;10880;50.302;18.736;2022-12-20T18:51:25;6.40;58.50
21439;DHT22;10880;50.302;18.736;2022-12-20T18:53:54;6.40;58.30
21439;DHT22;10880;50.302;18.736;2022-12-20T18:56:31;6.50;58.60
21439;DHT22;10880;50.302;18.736;2022-12-20T18:58:59;6.40;58.50
21439;DHT22;10880;50.302;18.736;2022-12-20T19:01:31;6.50;58.10
21439;DHT22;10880;50.302;18.736;2022-12-20T19:04:00;6.40;58.00
21439;DHT22;10880;50.302;18.736;2022-12-20T19:06:30;6.40;58.00
21439;DHT22;10880;50.302;18.736;2022-12-20T19:08:59;6.40;58.50
21439;DHT22;10880;50.302;18.736;2022-12-20T19:11:26;5.70;57.70